sensor_id;sensor_type;location;lat;lon;timestamp;pressure;altitude;pressure_sealevel;temperature
20058;BMP180;10189;49.546;7.906;2024-01-30T00:02:14;99469.00;;;5.80
20058;BMP180;10189;49.546;7.906;2024-01-30T00:04:40;99468.00;;;5.70
20058;BMP180;10189;49.546;7.906;2024-01-30T00:07:06;99467.00;;;5.80
20058;BMP180;10189;49.546;7.906;2024-01-30T00:09:32;99474.00;;;5.80
20058;BMP180;10189;49.546;7.906;2024-01-30T00:11:58;99478.00;;;5.80
20058;BMP180;10189;49.546;7.906;2024-01-30T00:14:24;99471.00;;;5.80
20058;BMP180;10189;49.546;7.906;2024-01-30T00:16:51;99476.00;;;5.70
20058;BMP180;10189;49.546;7.906;2024-01-30T00:19:17;99468.00;;;5.60
20058;BMP180;10189;49.546;7.906;2024-01-30T00:21:43;99472.00;;;5.60
20058;BMP180;10189;49.546;7.906;2024-01-30T00:24:09;99470.00;;;5.50
20058;BMP180;10189;49.546;7.906;2024-01-30T00:26:35;99474.00;;;5.50
20058;BMP180;10189;49.546;7.906;2024-01-30T00:29:01;99486.00;;;5.40
20058;BMP180;10189;49.546;7.906;2024-01-30T00:31:27;99476.00;;;5.40
20058;BMP180;10189;49.546;7.906;2024-01-30T00:33:53;99486.00;;;5.40
20058;BMP180;10189;49.546;7.906;2024-01-30T00:36:19;99484.00;;;5.30
20058;BMP180;10189;49.546;7.906;2024-01-30T00:38:45;99487.00;;;5.40
20058;BMP180;10189;49.546;7.906;2024-01-30T00:41:11;99477.00;;;5.60
20058;BMP180;10189;49.546;7.906;2024-01-30T00:43:37;99471.00;;;5.70
20058;BMP180;10189;49.546;7.906;2024-01-30T00:46:03;99475.00;;;5.70
20058;BMP180;10189;49.546;7.906;2024-01-30T00:48:29;99460.00;;;5.60
20058;BMP180;10189;49.546;7.906;2024-01-30T00:50:55;99474.00;;;5.50
20058;BMP180;10189;49.546;7.906;2024-01-30T00:53:21;99467.00;;;5.50
20058;BMP180;10189;49.546;7.906;2024-01-30T00:55:47;99473.00;;;5.50
20058;BMP180;10189;49.546;7.906;2024-01-30T00:58:13;99469.00;;;5.50
20058;BMP180;10189;49.546;7.906;2024-01-30T01:00:39;99468.00;;;5.50
20058;BMP180;10189;49.546;7.906;2024-01-30T01:03:05;99467.00;;;5.50
20058;BMP180;10189;49.546;7.906;2024-01-30T01:05:31;99467.00;;;5.50
20058;BMP180;10189;49.546;7.906;2024-01-30T01:07:57;99467.00;;;5.50
20058;BMP180;10189;49.546;7.906;2024-01-30T01:10:23;99471.00;;;5.50
20058;BMP180;10189;49.546;7.906;2024-01-30T01:12:49;99475.00;;;5.60
20058;BMP180;10189;49.546;7.906;2024-01-30T01:15:15;99465.00;;;5.60
20058;BMP180;10189;49.546;7.906;2024-01-30T01:17:41;99462.00;;;5.60
20058;BMP180;10189;49.546;7.906;2024-01-30T01:20:08;99474.00;;;5.60
20058;BMP180;10189;49.546;7.906;2024-01-30T01:22:34;99467.00;;;5.50
20058;BMP180;10189;49.546;7.906;2024-01-30T01:25:01;99465.00;;;5.50
20058;BMP180;10189;49.546;7.906;2024-01-30T01:27:27;99473.00;;;5.50
20058;BMP180;10189;49.546;7.906;2024-01-30T01:29:53;99464.00;;;5.50
20058;BMP180;10189;49.546;7.906;2024-01-30T01:32:20;99462.00;;;5.50
20058;BMP180;10189;49.546;7.906;2024-01-30T01:34:46;99471.00;;;5.50
20058;BMP180;10189;49.546;7.906;2024-01-30T01:37:12;99462.00;;;5.50
20058;BMP180;10189;49.546;7.906;2024-01-30T01:39:38;99459.00;;;5.60
20058;BMP180;10189;49.546;7.906;2024-01-30T01:42:04;99462.00;;;5.60
20058;BMP180;10189;49.546;7.906;2024-01-30T01:44:30;99468.00;;;5.50
20058;BMP180;10189;49.546;7.906;2024-01-30T01:46:57;99467.00;;;5.40
20058;BMP180;10189;49.546;7.906;2024-01-30T01:49:26;99470.00;;;5.30
20058;BMP180;10189;49.546;7.906;2024-01-30T01:51:55;99467.00;;;5.30
20058;BMP180;10189;49.546;7.906;2024-01-30T01:54:23;99473.00;;;5.30
20058;BMP180;10189;49.546;7.906;2024-01-30T01:56:52;99468.00;;;5.20
20058;BMP180;10189;49.546;7.906;2024-01-30T01:59:20;99481.00;;;5.20
20058;BMP180;10189;49.546;7.906;2024-01-30T02:01:48;99474.00;;;5.30
20058;BMP180;10189;49.546;7.906;2024-01-30T02:04:17;99475.00;;;5.20
20058;BMP180;10189;49.546;7.906;2024-01-30T02:06:43;99476.00;;;5.20
20058;BMP180;10189;49.546;7.906;2024-01-30T02:09:10;99467.00;;;5.20
20058;BMP180;10189;49.546;7.906;2024-01-30T02:11:35;99471.00;;;5.20
20058;BMP180;10189;49.546;7.906;2024-01-30T02:14:04;99465.00;;;5.10
20058;BMP180;10189;49.546;7.906;2024-01-30T02:16:30;99472.00;;;5.20
20058;BMP180;10189;49.546;7.906;2024-01-30T02:18:56;99467.00;;;5.20
20058;BMP180;10189;49.546;7.906;2024-01-30T02:21:22;99456.00;;;5.20
20058;BMP180;10189;49.546;7.906;2024-01-30T02:23:49;99468.00;;;5.10
20058;BMP180;10189;49.546;7.906;2024-01-30T02:26:16;99461.00;;;5.20
20058;BMP180;10189;49.546;7.906;2024-01-30T02:28:42;99457.00;;;5.20
20058;BMP180;10189;49.546;7.906;2024-01-30T02:31:08;99456.00;;;5.30
20058;BMP180;10189;49.546;7.906;2024-01-30T02:33:34;99464.00;;;5.40
20058;BMP180;10189;49.546;7.906;2024-01-30T02:36:00;99467.00;;;5.40
20058;BMP180;10189;49.546;7.906;2024-01-30T02:38:26;99456.00;;;5.50
20058;BMP180;10189;49.546;7.906;2024-01-30T02:40:55;99455.00;;;5.40
20058;BMP180;10189;49.546;7.906;2024-01-30T02:43:22;99452.00;;;5.50
20058;BMP180;10189;49.546;7.906;2024-01-30T02:45:48;99455.00;;;5.40
20058;BMP180;10189;49.546;7.906;2024-01-30T02:48:14;99468.00;;;5.40
20058;BMP180;10189;49.546;7.906;2024-01-30T02:50:40;99460.00;;;5.40
20058;BMP180;10189;49.546;7.906;2024-01-30T02:53:05;99456.00;;;5.30
20058;BMP180;10189;49.546;7.906;2024-01-30T02:55:31;99448.00;;;5.40
20058;BMP180;10189;49.546;7.906;2024-01-30T02:57:57;99452.00;;;5.40
20058;BMP180;10189;49.546;7.906;2024-01-30T03:00:23;99444.00;;;5.40
20058;BMP180;10189;49.546;7.906;2024-01-30T03:02:49;99443.00;;;5.40
20058;BMP180;10189;49.546;7.906;2024-01-30T03:05:15;99446.00;;;5.50
20058;BMP180;10189;49.546;7.906;2024-01-30T03:07:41;99444.00;;;5.50
20058;BMP180;10189;49.546;7.906;2024-01-30T03:10:07;99443.00;;;5.50
20058;BMP180;10189;49.546;7.906;2024-01-30T03:12:33;99447.00;;;5.50
20058;BMP180;10189;49.546;7.906;2024-01-30T03:14:59;99447.00;;;5.50
20058;BMP180;10189;49.546;7.906;2024-01-30T03:17:25;99440.00;;;5.50
20058;BMP180;10189;49.546;7.906;2024-01-30T03:19:51;99449.00;;;5.50
20058;BMP180;10189;49.546;7.906;2024-01-30T03:22:17;99441.00;;;5.50
20058;BMP180;10189;49.546;7.906;2024-01-30T03:24:43;99445.00;;;5.50
20058;BMP180;10189;49.546;7.906;2024-01-30T03:27:09;99449.00;;;5.50
20058;BMP180;10189;49.546;7.906;2024-01-30T03:29:35;99447.00;;;5.60
20058;BMP180;10189;49.546;7.906;2024-01-30T03:32:01;99445.00;;;5.60
20058;BMP180;10189;49.546;7.906;2024-01-30T03:34:27;99449.00;;;5.60
20058;BMP180;10189;49.546;7.906;2024-01-30T03:36:53;99444.00;;;5.60
20058;BMP180;10189;49.546;7.906;2024-01-30T03:39:19;99445.00;;;5.50
20058;BMP180;10189;49.546;7.906;2024-01-30T03:41:45;99446.00;;;5.50
20058;BMP180;10189;49.546;7.906;2024-01-30T03:44:11;99448.00;;;5.50
20058;BMP180;10189;49.546;7.906;2024-01-30T03:46:37;99446.00;;;5.50
20058;BMP180;10189;49.546;7.906;2024-01-30T03:49:03;99457.00;;;5.40
20058;BMP180;10189;49.546;7.906;2024-01-30T03:51:29;99460.00;;;5.40
20058;BMP180;10189;49.546;7.906;2024-01-30T03:53:55;99466.00;;;5.40
20058;BMP180;10189;49.546;7.906;2024-01-30T03:56:21;99450.00;;;5.40
20058;BMP180;10189;49.546;7.906;2024-01-30T03:58:47;99450.00;;;5.40
20058;BMP180;10189;49.546;7.906;2024-01-30T04:01:14;99450.00;;;5.30
20058;BMP180;10189;49.546;7.906;2024-01-30T04:03:41;99454.00;;;5.30
20058;BMP180;10189;49.546;7.906;2024-01-30T04:06:08;99447.00;;;5.20
20058;BMP180;10189;49.546;7.906;2024-01-30T04:08:34;99445.00;;;5.20
20058;BMP180;10189;49.546;7.906;2024-01-30T04:11:06;99447.00;;;5.20
20058;BMP180;10189;49.546;7.906;2024-01-30T04:13:33;99450.00;;;5.20
20058;BMP180;10189;49.546;7.906;2024-01-30T04:16:00;99452.00;;;5.30
20058;BMP180;10189;49.546;7.906;2024-01-30T04:18:29;99446.00;;;5.40
20058;BMP180;10189;49.546;7.906;2024-01-30T04:20:55;99441.00;;;5.50
20058;BMP180;10189;49.546;7.906;2024-01-30T04:23:21;99443.00;;;5.50
20058;BMP180;10189;49.546;7.906;2024-01-30T04:25:47;99443.00;;;5.60
20058;BMP180;10189;49.546;7.906;2024-01-30T04:28:13;99443.00;;;5.50
20058;BMP180;10189;49.546;7.906;2024-01-30T04:30:39;99454.00;;;5.50
20058;BMP180;10189;49.546;7.906;2024-01-30T04:33:05;99440.00;;;5.50
20058;BMP180;10189;49.546;7.906;2024-01-30T04:35:32;99452.00;;;5.40
20058;BMP180;10189;49.546;7.906;2024-01-30T04:37:57;99456.00;;;5.40
20058;BMP180;10189;49.546;7.906;2024-01-30T04:40:23;99457.00;;;5.30
20058;BMP180;10189;49.546;7.906;2024-01-30T04:42:49;99452.00;;;5.30
20058;BMP180;10189;49.546;7.906;2024-01-30T04:45:15;99459.00;;;5.20
20058;BMP180;10189;49.546;7.906;2024-01-30T04:47:41;99468.00;;;5.20
20058;BMP180;10189;49.546;7.906;2024-01-30T04:50:08;99466.00;;;5.20
20058;BMP180;10189;49.546;7.906;2024-01-30T04:52:35;99458.00;;;5.20
20058;BMP180;10189;49.546;7.906;2024-01-30T04:55:01;99461.00;;;5.20
20058;BMP180;10189;49.546;7.906;2024-01-30T04:57:26;99464.00;;;5.30
20058;BMP180;10189;49.546;7.906;2024-01-30T04:59:53;99458.00;;;5.30
20058;BMP180;10189;49.546;7.906;2024-01-30T05:02:19;99465.00;;;5.30
20058;BMP180;10189;49.546;7.906;2024-01-30T05:04:45;99462.00;;;5.30
20058;BMP180;10189;49.546;7.906;2024-01-30T05:07:11;99467.00;;;5.30
20058;BMP180;10189;49.546;7.906;2024-01-30T05:09:37;99464.00;;;5.30
20058;BMP180;10189;49.546;7.906;2024-01-30T05:12:03;99466.00;;;5.30
20058;BMP180;10189;49.546;7.906;2024-01-30T05:14:29;99466.00;;;5.40
20058;BMP180;10189;49.546;7.906;2024-01-30T05:16:54;99465.00;;;5.50
20058;BMP180;10189;49.546;7.906;2024-01-30T05:19:20;99460.00;;;5.50
20058;BMP180;10189;49.546;7.906;2024-01-30T05:21:49;99459.00;;;5.50
20058;BMP180;10189;49.546;7.906;2024-01-30T05:24:15;99456.00;;;5.50
20058;BMP180;10189;49.546;7.906;2024-01-30T05:26:41;99457.00;;;5.50
20058;BMP180;10189;49.546;7.906;2024-01-30T05:29:07;99456.00;;;5.50
20058;BMP180;10189;49.546;7.906;2024-01-30T05:31:34;99461.00;;;5.60
20058;BMP180;10189;49.546;7.906;2024-01-30T05:34:01;99450.00;;;5.60
20058;BMP180;10189;49.546;7.906;2024-01-30T05:36:27;99458.00;;;5.60
20058;BMP180;10189;49.546;7.906;2024-01-30T05:38:53;99461.00;;;5.60
20058;BMP180;10189;49.546;7.906;2024-01-30T05:41:19;99457.00;;;5.60
20058;BMP180;10189;49.546;7.906;2024-01-30T05:43:46;99459.00;;;5.60
20058;BMP180;10189;49.546;7.906;2024-01-30T05:46:12;99457.00;;;5.70
20058;BMP180;10189;49.546;7.906;2024-01-30T05:48:38;99452.00;;;5.70
20058;BMP180;10189;49.546;7.906;2024-01-30T05:51:04;99457.00;;;5.70
20058;BMP180;10189;49.546;7.906;2024-01-30T05:53:30;99452.00;;;5.80
20058;BMP180;10189;49.546;7.906;2024-01-30T05:55:56;99456.00;;;5.70
20058;BMP180;10189;49.546;7.906;2024-01-30T05:58:22;99459.00;;;5.70
20058;BMP180;10189;49.546;7.906;2024-01-30T06:00:48;99460.00;;;5.80
20058;BMP180;10189;49.546;7.906;2024-01-30T06:03:14;99460.00;;;5.80
20058;BMP180;10189;49.546;7.906;2024-01-30T06:05:40;99451.00;;;5.90
20058;BMP180;10189;49.546;7.906;2024-01-30T06:08:06;99456.00;;;5.90
20058;BMP180;10189;49.546;7.906;2024-01-30T06:10:32;99459.00;;;6.00
20058;BMP180;10189;49.546;7.906;2024-01-30T06:12:57;99467.00;;;5.90
20058;BMP180;10189;49.546;7.906;2024-01-30T06:15:23;99458.00;;;5.90
20058;BMP180;10189;49.546;7.906;2024-01-30T06:17:49;99456.00;;;5.80
20058;BMP180;10189;49.546;7.906;2024-01-30T06:20:15;99456.00;;;5.80
20058;BMP180;10189;49.546;7.906;2024-01-30T06:22:41;99447.00;;;5.70
20058;BMP180;10189;49.546;7.906;2024-01-30T06:25:07;99454.00;;;5.80
20058;BMP180;10189;49.546;7.906;2024-01-30T06:27:33;99449.00;;;5.80
20058;BMP180;10189;49.546;7.906;2024-01-30T06:29:59;99443.00;;;5.90
20058;BMP180;10189;49.546;7.906;2024-01-30T06:32:25;99447.00;;;5.80
20058;BMP180;10189;49.546;7.906;2024-01-30T06:34:51;99445.00;;;5.80
20058;BMP180;10189;49.546;7.906;2024-01-30T06:37:17;99442.00;;;6.00
20058;BMP180;10189;49.546;7.906;2024-01-30T06:39:42;99437.00;;;6.00
20058;BMP180;10189;49.546;7.906;2024-01-30T06:42:09;99443.00;;;5.90
20058;BMP180;10189;49.546;7.906;2024-01-30T06:44:35;99449.00;;;5.90
20058;BMP180;10189;49.546;7.906;2024-01-30T06:47:01;99444.00;;;6.00
20058;BMP180;10189;49.546;7.906;2024-01-30T06:49:27;99438.00;;;6.10
20058;BMP180;10189;49.546;7.906;2024-01-30T06:51:53;99445.00;;;6.10
20058;BMP180;10189;49.546;7.906;2024-01-30T06:54:19;99440.00;;;6.10
20058;BMP180;10189;49.546;7.906;2024-01-30T06:56:44;99443.00;;;6.20
20058;BMP180;10189;49.546;7.906;2024-01-30T06:59:10;99459.00;;;6.10
20058;BMP180;10189;49.546;7.906;2024-01-30T07:01:36;99460.00;;;6.30
20058;BMP180;10189;49.546;7.906;2024-01-30T07:04:02;99456.00;;;6.20
20058;BMP180;10189;49.546;7.906;2024-01-30T07:06:28;99460.00;;;6.40
20058;BMP180;10189;49.546;7.906;2024-01-30T07:08:54;99467.00;;;6.30
20058;BMP180;10189;49.546;7.906;2024-01-30T07:11:21;99466.00;;;6.40
20058;BMP180;10189;49.546;7.906;2024-01-30T07:13:48;99459.00;;;6.50
20058;BMP180;10189;49.546;7.906;2024-01-30T07:16:15;99468.00;;;6.60
20058;BMP180;10189;49.546;7.906;2024-01-30T07:18:41;99456.00;;;6.50
20058;BMP180;10189;49.546;7.906;2024-01-30T07:21:07;99466.00;;;6.60
20058;BMP180;10189;49.546;7.906;2024-01-30T07:23:33;99476.00;;;6.50
20058;BMP180;10189;49.546;7.906;2024-01-30T07:26:01;99466.00;;;6.60
20058;BMP180;10189;49.546;7.906;2024-01-30T07:28:27;99477.00;;;6.60
20058;BMP180;10189;49.546;7.906;2024-01-30T07:30:53;99468.00;;;6.70
20058;BMP180;10189;49.546;7.906;2024-01-30T07:33:19;99470.00;;;6.80
20058;BMP180;10189;49.546;7.906;2024-01-30T07:35:48;99477.00;;;6.70
20058;BMP180;10189;49.546;7.906;2024-01-30T07:38:14;99474.00;;;6.90
20058;BMP180;10189;49.546;7.906;2024-01-30T07:40:40;99477.00;;;7.00
20058;BMP180;10189;49.546;7.906;2024-01-30T07:43:06;99475.00;;;7.10
20058;BMP180;10189;49.546;7.906;2024-01-30T07:45:32;99473.00;;;7.10
20058;BMP180;10189;49.546;7.906;2024-01-30T07:47:59;99470.00;;;7.20
20058;BMP180;10189;49.546;7.906;2024-01-30T07:50:26;99470.00;;;7.30
20058;BMP180;10189;49.546;7.906;2024-01-30T07:52:52;99477.00;;;7.40
20058;BMP180;10189;49.546;7.906;2024-01-30T07:55:21;99483.00;;;7.50
20058;BMP180;10189;49.546;7.906;2024-01-30T07:57:52;99481.00;;;7.50
20058;BMP180;10189;49.546;7.906;2024-01-30T08:00:19;99470.00;;;7.50
20058;BMP180;10189;49.546;7.906;2024-01-30T08:02:46;99471.00;;;7.60
20058;BMP180;10189;49.546;7.906;2024-01-30T08:05:12;99468.00;;;7.60
20058;BMP180;10189;49.546;7.906;2024-01-30T08:07:37;99481.00;;;7.60
20058;BMP180;10189;49.546;7.906;2024-01-30T08:10:03;99479.00;;;7.70
20058;BMP180;10189;49.546;7.906;2024-01-30T08:12:29;99483.00;;;7.80
20058;BMP180;10189;49.546;7.906;2024-01-30T08:14:55;99472.00;;;7.90
20058;BMP180;10189;49.546;7.906;2024-01-30T08:17:21;99485.00;;;8.00
20058;BMP180;10189;49.546;7.906;2024-01-30T08:19:47;99472.00;;;8.10
20058;BMP180;10189;49.546;7.906;2024-01-30T08:22:13;99480.00;;;8.20
20058;BMP180;10189;49.546;7.906;2024-01-30T08:24:41;99481.00;;;8.30
20058;BMP180;10189;49.546;7.906;2024-01-30T08:27:07;99489.00;;;8.30
20058;BMP180;10189;49.546;7.906;2024-01-30T08:29:36;99478.00;;;8.40
20058;BMP180;10189;49.546;7.906;2024-01-30T08:32:03;99474.00;;;8.50
20058;BMP180;10189;49.546;7.906;2024-01-30T08:34:29;99477.00;;;8.50
20058;BMP180;10189;49.546;7.906;2024-01-30T08:36:55;99483.00;;;8.60
20058;BMP180;10189;49.546;7.906;2024-01-30T08:39:21;99477.00;;;8.60
20058;BMP180;10189;49.546;7.906;2024-01-30T08:41:46;99476.00;;;8.70
20058;BMP180;10189;49.546;7.906;2024-01-30T08:44:12;99473.00;;;8.70
20058;BMP180;10189;49.546;7.906;2024-01-30T08:46:38;99477.00;;;8.80
20058;BMP180;10189;49.546;7.906;2024-01-30T08:49:04;99466.00;;;8.90
20058;BMP180;10189;49.546;7.906;2024-01-30T08:51:31;99463.00;;;9.00
20058;BMP180;10189;49.546;7.906;2024-01-30T08:53:56;99462.00;;;9.20
20058;BMP180;10189;49.546;7.906;2024-01-30T08:56:22;99466.00;;;9.30
20058;BMP180;10189;49.546;7.906;2024-01-30T08:58:49;99461.00;;;9.40
20058;BMP180;10189;49.546;7.906;2024-01-30T09:01:15;99471.00;;;9.60
20058;BMP180;10189;49.546;7.906;2024-01-30T09:03:41;99467.00;;;9.60
20058;BMP180;10189;49.546;7.906;2024-01-30T09:06:10;99461.00;;;9.80
20058;BMP180;10189;49.546;7.906;2024-01-30T09:08:36;99455.00;;;9.90
20058;BMP180;10189;49.546;7.906;2024-01-30T09:11:09;99454.00;;;10.10
20058;BMP180;10189;49.546;7.906;2024-01-30T09:13:36;99457.00;;;10.10
20058;BMP180;10189;49.546;7.906;2024-01-30T09:16:03;99448.00;;;10.40
20058;BMP180;10189;49.546;7.906;2024-01-30T09:18:29;99438.00;;;10.40
20058;BMP180;10189;49.546;7.906;2024-01-30T09:20:55;99443.00;;;10.50
20058;BMP180;10189;49.546;7.906;2024-01-30T09:23:20;99451.00;;;10.80
20058;BMP180;10189;49.546;7.906;2024-01-30T09:25:47;99447.00;;;10.80
20058;BMP180;10189;49.546;7.906;2024-01-30T09:28:14;99452.00;;;10.90
20058;BMP180;10189;49.546;7.906;2024-01-30T09:30:40;99450.00;;;11.00
20058;BMP180;10189;49.546;7.906;2024-01-30T09:33:06;99461.00;;;11.20
20058;BMP180;10189;49.546;7.906;2024-01-30T09:35:32;99454.00;;;11.40
20058;BMP180;10189;49.546;7.906;2024-01-30T09:37:59;99460.00;;;11.20
20058;BMP180;10189;49.546;7.906;2024-01-30T09:40:25;99461.00;;;11.30
20058;BMP180;10189;49.546;7.906;2024-01-30T09:42:52;99463.00;;;11.40
20058;BMP180;10189;49.546;7.906;2024-01-30T09:45:24;99467.00;;;11.30
20058;BMP180;10189;49.546;7.906;2024-01-30T09:47:51;99460.00;;;11.40
20058;BMP180;10189;49.546;7.906;2024-01-30T09:50:18;99466.00;;;11.50
20058;BMP180;10189;49.546;7.906;2024-01-30T09:52:48;99460.00;;;11.60
20058;BMP180;10189;49.546;7.906;2024-01-30T09:55:15;99471.00;;;11.60
20058;BMP180;10189;49.546;7.906;2024-01-30T09:57:42;99472.00;;;11.50
20058;BMP180;10189;49.546;7.906;2024-01-30T10:00:09;99459.00;;;11.80
20058;BMP180;10189;49.546;7.906;2024-01-30T10:02:40;99470.00;;;11.80
20058;BMP180;10189;49.546;7.906;2024-01-30T10:05:08;99467.00;;;12.00
20058;BMP180;10189;49.546;7.906;2024-01-30T10:07:34;99458.00;;;12.30
20058;BMP180;10189;49.546;7.906;2024-01-30T10:10:00;99456.00;;;12.40
20058;BMP180;10189;49.546;7.906;2024-01-30T10:12:28;99451.00;;;12.40
20058;BMP180;10189;49.546;7.906;2024-01-30T10:14:56;99454.00;;;12.60
20058;BMP180;10189;49.546;7.906;2024-01-30T10:17:25;99443.00;;;12.70
20058;BMP180;10189;49.546;7.906;2024-01-30T10:19:52;99450.00;;;12.50
20058;BMP180;10189;49.546;7.906;2024-01-30T10:22:19;99455.00;;;12.50
20058;BMP180;10189;49.546;7.906;2024-01-30T10:24:45;99453.00;;;12.40
20058;BMP180;10189;49.546;7.906;2024-01-30T10:27:11;99462.00;;;12.30
20058;BMP180;10189;49.546;7.906;2024-01-30T10:29:37;99456.00;;;12.40
20058;BMP180;10189;49.546;7.906;2024-01-30T10:32:04;99461.00;;;12.50
20058;BMP180;10189;49.546;7.906;2024-01-30T10:34:32;99470.00;;;12.10
20058;BMP180;10189;49.546;7.906;2024-01-30T10:37:10;99478.00;;;12.20
20058;BMP180;10189;49.546;7.906;2024-01-30T10:39:42;99470.00;;;12.20
20058;BMP180;10189;49.546;7.906;2024-01-30T10:42:13;99479.00;;;12.40
20058;BMP180;10189;49.546;7.906;2024-01-30T10:45:06;99476.00;;;12.50
20058;BMP180;10189;49.546;7.906;2024-01-30T10:47:49;99476.00;;;12.40
20058;BMP180;10189;49.546;7.906;2024-01-30T10:50:16;99477.00;;;12.50
20058;BMP180;10189;49.546;7.906;2024-01-30T10:52:42;99476.00;;;12.40
20058;BMP180;10189;49.546;7.906;2024-01-30T10:55:10;99481.00;;;12.40
20058;BMP180;10189;49.546;7.906;2024-01-30T10:57:37;99473.00;;;12.20
20058;BMP180;10189;49.546;7.906;2024-01-30T11:00:14;99471.00;;;12.30
20058;BMP180;10189;49.546;7.906;2024-01-30T11:02:46;99477.00;;;12.40
20058;BMP180;10189;49.546;7.906;2024-01-30T11:05:13;99475.00;;;12.30
20058;BMP180;10189;49.546;7.906;2024-01-30T11:07:41;99463.00;;;12.20
20058;BMP180;10189;49.546;7.906;2024-01-30T11:10:08;99456.00;;;12.30
20058;BMP180;10189;49.546;7.906;2024-01-30T11:12:39;99459.00;;;12.50
20058;BMP180;10189;49.546;7.906;2024-01-30T11:15:15;99447.00;;;12.30
20058;BMP180;10189;49.546;7.906;2024-01-30T11:20:27;99441.00;;;12.40
20058;BMP180;10189;49.546;7.906;2024-01-30T11:22:57;99449.00;;;12.50
20058;BMP180;10189;49.546;7.906;2024-01-30T11:25:25;99444.00;;;12.50
20058;BMP180;10189;49.546;7.906;2024-01-30T11:27:53;99434.00;;;12.30
20058;BMP180;10189;49.546;7.906;2024-01-30T11:30:31;99442.00;;;12.30
20058;BMP180;10189;49.546;7.906;2024-01-30T11:33:04;99434.00;;;12.50
20058;BMP180;10189;49.546;7.906;2024-01-30T11:35:35;99438.00;;;12.40
20058;BMP180;10189;49.546;7.906;2024-01-30T11:38:03;99448.00;;;12.50
20058;BMP180;10189;49.546;7.906;2024-01-30T11:40:30;99440.00;;;12.60
20058;BMP180;10189;49.546;7.906;2024-01-30T11:42:59;99428.00;;;12.80
20058;BMP180;10189;49.546;7.906;2024-01-30T11:45:27;99439.00;;;12.90
20058;BMP180;10189;49.546;7.906;2024-01-30T11:47:54;99431.00;;;13.00
20058;BMP180;10189;49.546;7.906;2024-01-30T11:50:20;99429.00;;;13.00
20058;BMP180;10189;49.546;7.906;2024-01-30T11:52:48;99428.00;;;13.00
20058;BMP180;10189;49.546;7.906;2024-01-30T11:55:14;99427.00;;;12.80
20058;BMP180;10189;49.546;7.906;2024-01-30T11:57:41;99425.00;;;13.00
20058;BMP180;10189;49.546;7.906;2024-01-30T12:00:15;99429.00;;;13.10
20058;BMP180;10189;49.546;7.906;2024-01-30T12:02:42;99418.00;;;12.90
20058;BMP180;10189;49.546;7.906;2024-01-30T12:05:09;99416.00;;;13.00
20058;BMP180;10189;49.546;7.906;2024-01-30T12:07:35;99407.00;;;13.10
20058;BMP180;10189;49.546;7.906;2024-01-30T12:10:02;99414.00;;;13.10
20058;BMP180;10189;49.546;7.906;2024-01-30T12:12:29;99412.00;;;13.10
20058;BMP180;10189;49.546;7.906;2024-01-30T12:14:56;99418.00;;;13.20
20058;BMP180;10189;49.546;7.906;2024-01-30T12:17:34;99413.00;;;13.20
20058;BMP180;10189;49.546;7.906;2024-01-30T12:20:14;99406.00;;;13.20
20058;BMP180;10189;49.546;7.906;2024-01-30T12:22:43;99400.00;;;13.40
20058;BMP180;10189;49.546;7.906;2024-01-30T12:25:10;99406.00;;;13.40
20058;BMP180;10189;49.546;7.906;2024-01-30T12:27:38;99412.00;;;13.20
20058;BMP180;10189;49.546;7.906;2024-01-30T12:30:12;99415.00;;;13.20
20058;BMP180;10189;49.546;7.906;2024-01-30T12:32:44;99412.00;;;13.30
20058;BMP180;10189;49.546;7.906;2024-01-30T12:35:11;99411.00;;;13.30
20058;BMP180;10189;49.546;7.906;2024-01-30T12:37:38;99419.00;;;13.30
20058;BMP180;10189;49.546;7.906;2024-01-30T12:40:05;99409.00;;;13.30
20058;BMP180;10189;49.546;7.906;2024-01-30T12:42:35;99417.00;;;13.40
20058;BMP180;10189;49.546;7.906;2024-01-30T12:47:42;99427.00;;;13.10
20058;BMP180;10189;49.546;7.906;2024-01-30T12:50:08;99426.00;;;13.20
20058;BMP180;10189;49.546;7.906;2024-01-30T12:52:35;99420.00;;;13.00
20058;BMP180;10189;49.546;7.906;2024-01-30T12:55:01;99414.00;;;13.20
20058;BMP180;10189;49.546;7.906;2024-01-30T12:57:29;99417.00;;;13.20
20058;BMP180;10189;49.546;7.906;2024-01-30T12:59:55;99422.00;;;13.20
20058;BMP180;10189;49.546;7.906;2024-01-30T13:02:21;99415.00;;;13.20
20058;BMP180;10189;49.546;7.906;2024-01-30T13:04:48;99418.00;;;13.30
20058;BMP180;10189;49.546;7.906;2024-01-30T13:07:14;99397.00;;;13.40
20058;BMP180;10189;49.546;7.906;2024-01-30T13:09:40;99401.00;;;13.40
20058;BMP180;10189;49.546;7.906;2024-01-30T13:12:06;99384.00;;;13.40
20058;BMP180;10189;49.546;7.906;2024-01-30T13:14:32;99392.00;;;13.50
20058;BMP180;10189;49.546;7.906;2024-01-30T13:16:59;99388.00;;;13.60
20058;BMP180;10189;49.546;7.906;2024-01-30T13:19:25;99395.00;;;13.60
20058;BMP180;10189;49.546;7.906;2024-01-30T13:21:50;99383.00;;;13.50
20058;BMP180;10189;49.546;7.906;2024-01-30T13:24:16;99389.00;;;13.60
20058;BMP180;10189;49.546;7.906;2024-01-30T13:26:43;99381.00;;;13.70
20058;BMP180;10189;49.546;7.906;2024-01-30T13:29:10;99386.00;;;13.60
20058;BMP180;10189;49.546;7.906;2024-01-30T13:31:36;99375.00;;;13.80
20058;BMP180;10189;49.546;7.906;2024-01-30T13:34:01;99373.00;;;13.70
20058;BMP180;10189;49.546;7.906;2024-01-30T13:36:27;99371.00;;;13.70
20058;BMP180;10189;49.546;7.906;2024-01-30T13:38:53;99371.00;;;13.70
20058;BMP180;10189;49.546;7.906;2024-01-30T13:41:19;99369.00;;;13.70
20058;BMP180;10189;49.546;7.906;2024-01-30T13:43:46;99378.00;;;13.60
20058;BMP180;10189;49.546;7.906;2024-01-30T13:46:12;99368.00;;;13.60
20058;BMP180;10189;49.546;7.906;2024-01-30T13:48:38;99382.00;;;13.60
20058;BMP180;10189;49.546;7.906;2024-01-30T13:51:04;99383.00;;;13.80
20058;BMP180;10189;49.546;7.906;2024-01-30T13:53:30;99379.00;;;13.80
20058;BMP180;10189;49.546;7.906;2024-01-30T13:55:56;99385.00;;;13.80
20058;BMP180;10189;49.546;7.906;2024-01-30T13:58:22;99390.00;;;13.80
20058;BMP180;10189;49.546;7.906;2024-01-30T14:00:48;99384.00;;;13.80
20058;BMP180;10189;49.546;7.906;2024-01-30T14:03:14;99395.00;;;13.70
20058;BMP180;10189;49.546;7.906;2024-01-30T14:05:40;99399.00;;;13.70
20058;BMP180;10189;49.546;7.906;2024-01-30T14:08:06;99401.00;;;13.60
20058;BMP180;10189;49.546;7.906;2024-01-30T14:10:34;99410.00;;;13.70
20058;BMP180;10189;49.546;7.906;2024-01-30T14:13:00;99402.00;;;13.70
20058;BMP180;10189;49.546;7.906;2024-01-30T14:15:26;99417.00;;;13.60
20058;BMP180;10189;49.546;7.906;2024-01-30T14:17:52;99405.00;;;13.60
20058;BMP180;10189;49.546;7.906;2024-01-30T14:20:18;99400.00;;;13.60